createdAt,value
2019-02-10T00:01:18.728Z,4.43
2019-02-10T00:03:47.759Z,4.13
2019-02-10T00:06:24.308Z,3.40
2019-02-10T00:08:47.356Z,5.20
2019-02-10T00:11:16.202Z,5.47
2019-02-10T00:13:45.155Z,5.10
2019-02-10T00:16:19.090Z,4.13
2019-02-10T00:18:47.989Z,3.93
2019-02-10T00:21:17.058Z,4.67
2019-02-10T00:23:46.017Z,2.87
2019-02-10T00:26:14.934Z,4.13
2019-02-10T00:28:43.827Z,4.60
2019-02-10T00:31:12.718Z,4.33
2019-02-10T00:33:41.528Z,3.40
2019-02-10T00:36:10.332Z,4.33
2019-02-10T00:38:39.158Z,4.17
2019-02-10T00:41:08.641Z,3.80
2019-02-10T00:43:37.474Z,4.53
2019-02-10T00:46:06.445Z,4.73
2019-02-10T00:48:35.475Z,4.30
2019-02-10T00:51:04.375Z,3.80
2019-02-10T00:53:33.186Z,4.73
2019-02-10T00:56:02.307Z,4.47
2019-02-10T00:58:31.267Z,5.37
2019-02-10T01:01:00.080Z,4.97
2019-02-10T01:03:28.914Z,3.97
2019-02-10T01:05:57.730Z,4.40
2019-02-10T01:08:26.595Z,4.03
2019-02-10T01:10:55.592Z,4.77
2019-02-10T01:13:24.562Z,4.63
2019-02-10T01:15:53.475Z,4.17
2019-02-10T01:18:22.354Z,5.50
2019-02-10T01:20:51.378Z,6.27
2019-02-10T01:23:20.256Z,4.97
2019-02-10T01:25:49.106Z,4.73
2019-02-10T01:28:18.003Z,5.03
2019-02-10T01:30:47.175Z,4.37
2019-02-10T01:33:16.122Z,4.57
2019-02-10T01:35:44.910Z,4.97
2019-02-10T01:38:13.817Z,5.43
2019-02-10T01:40:42.658Z,5.40
2019-02-10T01:43:11.581Z,4.70
2019-02-10T01:45:40.446Z,4.17
2019-02-10T01:48:09.444Z,5.43
2019-02-10T01:50:38.387Z,4.73
2019-02-10T01:53:07.235Z,3.80
2019-02-10T01:55:36.118Z,3.60
2019-02-10T01:58:05.089Z,4.17
2019-02-10T02:00:34.051Z,4.30
2019-02-10T02:03:03.226Z,6.03
2019-02-10T02:05:32.128Z,4.83
2019-02-10T02:08:01.076Z,4.57
2019-02-10T02:10:30.005Z,5.17
2019-02-10T02:12:58.810Z,5.03
2019-02-10T02:15:27.660Z,4.80
2019-02-10T02:17:56.485Z,6.17
2019-02-10T02:20:25.387Z,5.73
2019-02-10T02:22:54.294Z,4.50
2019-02-10T02:25:23.194Z,5.97
2019-02-10T02:27:52.100Z,4.40
2019-02-10T02:30:20.916Z,3.90
2019-02-10T02:32:49.859Z,3.93
2019-02-10T02:35:18.689Z,4.83
2019-02-10T02:37:47.664Z,4.50
2019-02-10T02:40:16.675Z,5.57
2019-02-10T02:42:45.510Z,4.07
2019-02-10T02:45:14.370Z,6.07
2019-02-10T02:47:43.205Z,4.30
2019-02-10T02:50:12.445Z,6.20
2019-02-10T02:52:41.535Z,3.90
2019-02-10T02:55:10.487Z,5.40
2019-02-10T02:57:39.362Z,3.67
2019-02-10T03:00:08.653Z,4.93
2019-02-10T03:02:37.645Z,4.20
2019-02-10T03:05:07.940Z,3.53
2019-02-10T03:07:36.830Z,4.53
2019-02-10T03:10:06.041Z,4.57
2019-02-10T03:12:34.881Z,4.33
2019-02-10T03:15:03.930Z,4.50
2019-02-10T03:17:32.891Z,3.40
2019-02-10T03:20:01.870Z,4.27
2019-02-10T03:22:30.758Z,4.37
2019-02-10T03:24:59.557Z,3.20
2019-02-10T03:27:28.388Z,4.53
2019-02-10T03:29:57.243Z,4.30
2019-02-10T03:32:26.134Z,5.87
2019-02-10T03:34:55.027Z,3.87
2019-02-10T03:37:27.166Z,4.60
2019-02-10T03:39:54.462Z,4.97
2019-02-10T03:42:23.427Z,5.13
2019-02-10T03:44:52.295Z,4.43
2019-02-10T03:47:22.234Z,3.60
2019-02-10T03:49:51.255Z,3.07
2019-02-10T03:52:20.235Z,5.03
2019-02-10T03:54:49.210Z,4.23
2019-02-10T03:57:18.101Z,4.37
2019-02-10T03:59:47.059Z,3.40
2019-02-10T04:02:16.041Z,3.70
2019-02-10T04:04:44.898Z,4.07
2019-02-10T04:07:13.734Z,4.20
2019-02-10T04:09:42.707Z,3.00
2019-02-10T04:12:11.562Z,2.93
2019-02-10T04:14:40.404Z,3.87
2019-02-10T04:17:09.507Z,5.30
2019-02-10T04:19:38.338Z,3.20
2019-02-10T04:22:07.171Z,2.97
2019-02-10T04:24:35.969Z,2.90
2019-02-10T04:27:05.004Z,3.37
2019-02-10T04:29:33.817Z,3.43
2019-02-10T04:32:02.624Z,2.50
2019-02-10T04:34:31.443Z,3.27
2019-02-10T04:37:00.305Z,3.60
2019-02-10T04:39:29.226Z,3.60
2019-02-10T04:41:58.120Z,3.20
2019-02-10T04:44:26.950Z,3.43
2019-02-10T04:46:55.762Z,3.67
2019-02-10T04:49:24.669Z,2.80
2019-02-10T04:51:53.620Z,3.87
2019-02-10T04:54:22.570Z,3.90
2019-02-10T04:56:51.453Z,3.77
2019-02-10T04:59:20.241Z,3.50
2019-02-10T05:01:49.054Z,3.60
2019-02-10T05:04:17.941Z,3.57
2019-02-10T05:06:46.834Z,3.63
2019-02-10T05:09:15.713Z,3.20
2019-02-10T05:11:44.582Z,3.90
2019-02-10T05:14:13.450Z,3.83
2019-02-10T05:16:42.249Z,2.93
2019-02-10T05:19:11.075Z,3.93
2019-02-10T05:21:39.978Z,3.87
2019-02-10T05:24:08.805Z,4.33
2019-02-10T05:26:37.607Z,3.50
2019-02-10T05:29:06.500Z,3.10
2019-02-10T05:31:35.352Z,3.37
2019-02-10T05:34:04.244Z,3.20
2019-02-10T05:36:33.053Z,3.63
2019-02-10T05:39:01.870Z,3.13
2019-02-10T05:41:30.655Z,3.03
2019-02-10T05:43:59.467Z,3.17
2019-02-10T05:46:28.279Z,3.83
2019-02-10T05:48:57.199Z,3.57
2019-02-10T05:51:26.005Z,3.20
2019-02-10T05:53:54.810Z,2.23
2019-02-10T05:56:23.641Z,4.50
2019-02-10T05:58:52.573Z,3.67
2019-02-10T06:01:57.790Z,4.10
2019-02-10T06:04:26.699Z,3.97
2019-02-10T06:06:57.681Z,2.93
2019-02-10T06:09:26.562Z,2.43
2019-02-10T06:11:55.384Z,3.80
2019-02-10T06:14:24.242Z,5.00
2019-02-10T06:16:53.181Z,3.33
2019-02-10T06:19:22.097Z,3.20
2019-02-10T06:21:51.045Z,3.67
2019-02-10T06:24:19.937Z,3.50
2019-02-10T06:26:48.776Z,3.80
2019-02-10T06:29:17.591Z,4.50
2019-02-10T06:31:46.471Z,4.03
2019-02-10T06:34:15.369Z,4.33
2019-02-10T06:36:44.257Z,3.90
2019-02-10T06:39:13.083Z,4.27
2019-02-10T06:41:41.899Z,3.80
2019-02-10T06:44:10.837Z,3.73
2019-02-10T06:46:39.843Z,3.73
2019-02-10T06:49:08.850Z,4.17
2019-02-10T06:51:37.733Z,5.27
2019-02-10T06:54:06.577Z,3.17
2019-02-10T06:56:35.564Z,4.17
2019-02-10T06:59:04.375Z,4.20
2019-02-10T07:01:36.367Z,3.90
2019-02-10T07:04:14.712Z,4.50
2019-02-10T07:06:55.834Z,4.60
2019-02-10T07:09:26.810Z,3.87
2019-02-10T07:11:55.854Z,4.93
2019-02-10T07:14:38.381Z,4.20
2019-02-10T07:17:41.722Z,3.63
2019-02-10T07:20:46.316Z,4.90
2019-02-10T07:23:56.204Z,4.60
2019-02-10T07:26:53.655Z,4.63
2019-02-10T07:30:08.727Z,4.20
2019-02-10T07:32:41.504Z,3.40
2019-02-10T07:35:40.543Z,3.90
2019-02-10T07:38:51.684Z,3.90
2019-02-10T07:41:46.554Z,4.60
2019-02-10T07:44:31.477Z,4.27
2019-02-10T07:47:21.415Z,5.57
2019-02-10T07:50:14.573Z,3.83
2019-02-10T07:52:58.819Z,5.17
2019-02-10T07:55:43.304Z,5.00
2019-02-10T07:58:48.555Z,5.77
2019-02-10T08:01:47.161Z,5.13
2019-02-10T08:04:50.808Z,5.17
2019-02-10T08:07:35.288Z,5.50
2019-02-10T08:10:35.390Z,5.27
2019-02-10T08:13:40.475Z,6.87
2019-02-10T08:16:29.793Z,5.67
2019-02-10T08:19:38.873Z,4.70
2019-02-10T08:22:45.791Z,6.00
2019-02-10T08:25:57.201Z,3.80
2019-02-10T08:28:46.021Z,4.20
2019-02-10T08:31:59.014Z,3.70
2019-02-10T08:35:18.285Z,4.70
2019-02-10T08:38:12.540Z,4.10
2019-02-10T08:41:11.044Z,4.07
2019-02-10T08:43:53.206Z,5.90
2019-02-10T08:46:34.970Z,4.57
2019-02-10T08:49:54.012Z,3.63
2019-02-10T08:53:02.341Z,3.60
2019-02-10T08:55:31.173Z,3.40
2019-02-10T08:58:00.063Z,3.80
2019-02-10T09:00:28.951Z,3.03
2019-02-10T09:02:57.853Z,3.77
2019-02-10T09:05:26.679Z,2.40
2019-02-10T09:07:55.695Z,1.50
2019-02-10T09:10:24.619Z,1.97
2019-02-10T09:12:54.903Z,3.50
2019-02-10T09:15:24.219Z,2.80
2019-02-10T09:17:53.112Z,2.00
2019-02-10T09:20:22.038Z,4.20
2019-02-10T09:22:51.235Z,3.03
2019-02-10T09:25:20.041Z,3.30
2019-02-10T09:27:48.890Z,3.53
2019-02-10T09:30:17.926Z,3.33
2019-02-10T09:32:46.928Z,3.77
2019-02-10T09:35:15.905Z,3.40
2019-02-10T09:37:44.757Z,3.97
2019-02-10T09:40:14.154Z,4.77
2019-02-10T09:42:42.986Z,5.27
2019-02-10T09:45:13.057Z,5.43
2019-02-10T09:47:42.181Z,5.03
2019-02-10T09:50:14.071Z,5.10
2019-02-10T09:52:43.066Z,4.57
2019-02-10T09:55:12.094Z,4.27
2019-02-10T09:57:40.897Z,5.07
2019-02-10T10:00:12.229Z,6.20
2019-02-10T10:02:41.236Z,5.90
2019-02-10T10:05:11.102Z,6.27
2019-02-10T10:07:40.061Z,6.50
2019-02-10T10:10:10.361Z,5.23
2019-02-10T10:12:39.202Z,7.03
2019-02-10T10:15:10.044Z,6.10
2019-02-10T10:17:38.948Z,5.60
2019-02-10T10:20:10.089Z,7.00
2019-02-10T10:22:38.994Z,6.67
2019-02-10T10:25:08.415Z,6.70
2019-02-10T10:27:37.382Z,6.03
2019-02-10T10:30:08.181Z,6.77
2019-02-10T10:32:37.061Z,4.57
2019-02-10T10:35:06.163Z,6.27
2019-02-10T10:37:35.069Z,5.83
2019-02-10T10:40:04.322Z,6.50
2019-02-10T10:42:33.190Z,7.30
2019-02-10T10:45:02.008Z,6.53
2019-02-10T10:47:30.974Z,5.83
2019-02-10T10:49:59.971Z,4.40
2019-02-10T10:52:28.964Z,3.70
2019-02-10T10:54:57.802Z,3.57
2019-02-10T10:57:26.718Z,4.37
2019-02-10T10:59:55.523Z,3.23
2019-02-10T11:02:24.424Z,3.43
2019-02-10T11:04:53.306Z,3.27
2019-02-10T11:07:22.262Z,3.53
2019-02-10T11:09:51.301Z,3.10
2019-02-10T11:12:20.416Z,2.70
2019-02-10T11:14:49.262Z,2.93
2019-02-10T11:17:18.203Z,3.00
2019-02-10T11:19:47.001Z,3.70
2019-02-10T11:22:15.975Z,2.47
2019-02-10T11:24:44.885Z,3.67
2019-02-10T11:27:13.698Z,3.73
2019-02-10T11:29:42.766Z,4.10
2019-02-10T11:32:11.730Z,4.30
2019-02-10T11:34:46.034Z,3.47
2019-02-10T11:37:11.362Z,3.27
2019-02-10T11:39:43.857Z,2.90
2019-02-10T11:42:10.762Z,4.17
2019-02-10T11:44:39.593Z,3.97
2019-02-10T11:47:08.515Z,4.17
2019-02-10T11:49:37.404Z,3.83
2019-02-10T11:52:06.346Z,3.93
2019-02-10T11:54:35.159Z,3.23
2019-02-10T11:57:04.081Z,3.30
2019-02-10T11:59:33.098Z,1.67
2019-02-10T12:02:01.898Z,2.43
2019-02-10T12:04:30.760Z,3.20
2019-02-10T12:06:59.552Z,2.77
2019-02-10T12:09:28.454Z,3.20
2019-02-10T12:11:57.482Z,3.17
2019-02-10T12:14:26.452Z,2.60
2019-02-10T12:16:55.250Z,1.50
2019-02-10T12:19:24.199Z,1.73
2019-02-10T12:21:53.094Z,2.53
2019-02-10T12:24:21.914Z,2.03
2019-02-10T12:26:51.102Z,2.43
2019-02-10T12:29:19.977Z,2.40
2019-02-10T12:31:48.803Z,2.30
2019-02-10T12:34:17.773Z,1.47
2019-02-10T12:36:46.852Z,1.60
2019-02-10T12:39:15.854Z,1.50
2019-02-10T12:41:44.750Z,1.77
2019-02-10T12:44:13.604Z,1.80
2019-02-10T12:46:42.486Z,2.20
2019-02-10T12:49:11.477Z,3.23
2019-02-10T12:51:40.283Z,2.07
2019-02-10T12:54:09.750Z,2.40
2019-02-10T12:56:38.778Z,1.97
2019-02-10T12:59:08.082Z,3.10
2019-02-10T13:01:37.210Z,2.70
2019-02-10T13:04:06.341Z,2.97
2019-02-10T13:06:35.580Z,3.00
2019-02-10T13:09:07.571Z,3.50
2019-02-10T13:11:37.029Z,2.03
2019-02-10T13:14:06.012Z,2.20
2019-02-10T13:16:35.202Z,2.67
2019-02-10T13:19:04.594Z,2.47
2019-02-10T13:21:34.092Z,2.43
2019-02-10T13:24:05.074Z,2.07
2019-02-10T13:26:33.963Z,2.13
2019-02-10T13:29:02.874Z,2.23
2019-02-10T13:31:31.911Z,1.57
2019-02-10T13:34:00.893Z,1.97
2019-02-10T13:36:29.698Z,2.43
2019-02-10T13:38:58.693Z,2.33
2019-02-10T13:41:34.813Z,2.30
2019-02-10T13:44:04.545Z,3.73
2019-02-10T13:46:33.385Z,2.57
2019-02-10T13:49:03.098Z,7.67
2019-02-10T13:51:31.934Z,6.20
2019-02-10T13:54:00.925Z,4.37
2019-02-10T13:56:29.802Z,3.77
2019-02-10T13:58:58.643Z,3.13
2019-02-10T14:01:27.624Z,3.00
2019-02-10T14:03:56.557Z,2.43
2019-02-10T14:06:25.433Z,2.50
2019-02-10T14:08:54.345Z,2.63
2019-02-10T14:11:23.199Z,3.07
2019-02-10T14:13:52.087Z,3.90
2019-02-10T14:16:21.321Z,2.70
2019-02-10T14:18:50.157Z,2.40
2019-02-10T14:21:19.059Z,2.47
2019-02-10T14:23:47.849Z,2.30
2019-02-10T14:26:16.786Z,2.63
2019-02-10T14:28:45.657Z,2.57
2019-02-10T14:31:14.553Z,2.77
2019-02-10T14:33:43.393Z,2.37
2019-02-10T14:36:12.287Z,2.70
2019-02-10T14:38:41.103Z,2.13
2019-02-10T14:41:10.025Z,2.50
2019-02-10T14:43:39.018Z,2.97
2019-02-10T14:46:07.809Z,4.37
2019-02-10T14:48:36.638Z,4.90
2019-02-10T14:51:05.423Z,3.60
2019-02-10T14:53:34.375Z,3.37
2019-02-10T14:56:03.358Z,4.23
2019-02-10T14:58:42.620Z,3.30
2019-02-10T15:01:05.214Z,3.20
2019-02-10T15:03:34.070Z,2.90
2019-02-10T15:06:02.909Z,2.90
2019-02-10T15:08:31.699Z,3.27
2019-02-10T15:11:00.558Z,3.43
2019-02-10T15:13:29.468Z,3.17
2019-02-10T15:15:58.306Z,2.97
2019-02-10T15:18:27.134Z,3.73
2019-02-10T15:20:55.973Z,4.40
2019-02-10T15:23:24.934Z,3.60
2019-02-10T15:25:53.810Z,3.03
2019-02-10T15:28:22.741Z,3.70
2019-02-10T15:33:18.614Z,3.63
2019-02-10T15:35:47.529Z,2.80
2019-02-10T15:38:16.562Z,3.93
2019-02-10T15:40:50.077Z,2.57
2019-02-10T15:43:15.993Z,2.10
2019-02-10T15:45:44.872Z,2.53
2019-02-10T15:48:13.685Z,3.53
2019-02-10T15:50:42.514Z,2.53
2019-02-10T15:53:11.337Z,3.20
2019-02-10T15:55:40.192Z,2.80
2019-02-10T15:58:09.081Z,3.73
2019-02-10T16:00:38.025Z,2.23
2019-02-10T16:03:06.922Z,2.00
2019-02-10T16:05:35.877Z,2.23
2019-02-10T16:08:04.841Z,3.10
2019-02-10T16:10:33.671Z,2.57
2019-02-10T16:13:02.470Z,2.67
2019-02-10T16:15:31.360Z,2.23
2019-02-10T16:18:00.244Z,3.07
2019-02-10T16:20:29.121Z,2.10
2019-02-10T16:22:57.948Z,2.80
2019-02-10T16:25:26.798Z,3.00
2019-02-10T16:27:55.694Z,2.47
2019-02-10T16:30:24.786Z,2.70
2019-02-10T16:32:53.633Z,3.33
2019-02-10T16:35:22.530Z,3.40
2019-02-10T16:37:51.345Z,2.33
2019-02-10T16:40:20.403Z,1.10
2019-02-10T16:42:49.363Z,1.17
2019-02-10T16:45:18.540Z,1.00
2019-02-10T16:47:47.656Z,2.10
2019-02-10T16:50:16.560Z,1.70
2019-02-10T16:52:45.522Z,1.50
2019-02-10T16:55:14.743Z,1.50
2019-02-10T16:57:43.611Z,1.33
2019-02-10T17:00:13.742Z,1.57
2019-02-10T17:02:42.690Z,1.47
2019-02-10T17:05:13.069Z,1.40
2019-02-10T17:07:42.081Z,1.53
2019-02-10T17:10:11.799Z,1.70
2019-02-10T17:12:40.903Z,1.40
2019-02-10T17:15:10.566Z,2.03
2019-02-10T17:17:39.449Z,1.47
2019-02-10T17:20:09.614Z,1.87
2019-02-10T17:22:38.921Z,1.70
2019-02-10T17:25:09.805Z,1.57
2019-02-10T17:27:38.670Z,2.30
2019-02-10T17:30:08.644Z,1.67
2019-02-10T17:32:37.492Z,2.17
2019-02-10T17:35:06.803Z,1.80
2019-02-10T17:37:35.702Z,1.40
2019-02-10T17:40:06.219Z,1.50
2019-02-10T17:42:35.090Z,1.43
2019-02-10T17:45:04.074Z,1.30
2019-02-10T17:47:32.871Z,1.00
2019-02-10T17:50:01.713Z,1.40
2019-02-10T17:52:32.032Z,1.43
2019-02-10T17:55:01.071Z,1.10
2019-02-10T17:57:29.894Z,1.20
2019-02-10T17:59:58.930Z,1.27
2019-02-10T18:02:27.811Z,1.20
2019-02-10T18:04:56.848Z,1.20
2019-02-10T18:07:25.839Z,1.40
2019-02-10T18:09:54.786Z,1.97
2019-02-10T18:12:23.824Z,2.43
2019-02-10T18:15:22.127Z,1.60
2019-02-10T18:17:59.276Z,1.47
2019-02-10T18:20:53.261Z,1.40
2019-02-10T18:23:43.986Z,1.33
2019-02-10T18:26:33.242Z,1.03
2019-02-10T18:29:19.769Z,1.30
2019-02-10T18:31:55.870Z,1.33
2019-02-10T18:34:39.924Z,1.20
2019-02-10T18:37:20.619Z,1.50
2019-02-10T18:40:11.653Z,1.40
2019-02-10T18:42:47.750Z,1.60
2019-02-10T18:45:44.954Z,1.50
2019-02-10T18:48:32.859Z,1.30
2019-02-10T18:51:24.686Z,1.47
2019-02-10T18:54:10.679Z,2.03
2019-02-10T18:57:04.531Z,1.13
2019-02-10T18:59:42.844Z,1.40
2019-02-10T19:02:23.017Z,1.80
2019-02-10T19:05:09.622Z,2.33
2019-02-10T19:08:00.652Z,1.33
2019-02-10T19:10:50.994Z,1.53
2019-02-10T19:13:30.964Z,1.70
2019-02-10T19:16:06.377Z,1.43
2019-02-10T19:18:53.031Z,1.47
2019-02-10T19:21:39.882Z,1.97
2019-02-10T19:24:35.273Z,1.60
2019-02-10T19:27:14.813Z,2.03
2019-02-10T19:29:58.922Z,1.60
2019-02-10T19:32:51.009Z,1.43
2019-02-10T19:35:44.974Z,1.33
2019-02-10T19:38:28.382Z,1.50
2019-02-10T19:41:22.218Z,1.50
2019-02-10T19:44:10.113Z,1.43
2019-02-10T19:46:58.029Z,1.63
2019-02-10T19:49:52.127Z,1.57
2019-02-10T19:52:55.141Z,1.93
2019-02-10T19:55:32.365Z,1.10
2019-02-10T19:58:23.165Z,1.30
2019-02-10T20:01:10.514Z,1.30
2019-02-10T20:03:46.870Z,1.83
2019-02-10T20:06:25.085Z,1.37
2019-02-10T20:09:13.412Z,1.70
2019-02-10T20:12:04.535Z,1.63
2019-02-10T20:14:52.732Z,1.60
2019-02-10T20:17:43.494Z,2.40
2019-02-10T20:20:43.554Z,2.37
2019-02-10T20:23:24.814Z,1.50
2019-02-10T20:26:07.077Z,2.63
2019-02-10T20:29:13.586Z,1.57
2019-02-10T20:31:52.318Z,1.87
2019-02-10T20:34:43.720Z,1.90
2019-02-10T20:37:18.706Z,1.67
2019-02-10T20:40:04.742Z,1.67
2019-02-10T20:42:43.990Z,1.60
2019-02-10T20:45:20.230Z,1.60
2019-02-10T20:48:14.088Z,1.83
2019-02-10T20:51:20.273Z,2.20
2019-02-10T20:54:11.546Z,1.90
2019-02-10T20:56:55.223Z,1.70
2019-02-10T20:59:55.885Z,2.27
2019-02-10T21:02:37.106Z,1.90
2019-02-10T21:05:12.314Z,1.77
2019-02-10T21:07:54.317Z,2.00
2019-02-10T21:10:50.526Z,1.53
2019-02-10T21:13:44.845Z,1.10
2019-02-10T21:16:42.121Z,1.93
2019-02-10T21:19:24.958Z,2.27
2019-02-10T21:22:11.721Z,1.50
2019-02-10T21:25:05.841Z,2.00
2019-02-10T21:27:52.721Z,1.70
2019-02-10T21:30:43.965Z,1.57
2019-02-10T21:33:19.654Z,1.73
2019-02-10T21:35:59.486Z,2.80
2019-02-10T21:38:50.085Z,2.07
2019-02-10T21:41:28.352Z,2.27
2019-02-10T21:44:02.902Z,2.10
2019-02-10T21:46:51.071Z,1.50
2019-02-10T21:49:23.802Z,1.57
2019-02-10T21:51:52.695Z,2.70
2019-02-10T21:54:21.769Z,2.33
2019-02-10T21:56:50.693Z,3.30
2019-02-10T21:59:19.621Z,2.90
2019-02-10T22:01:48.611Z,2.13
2019-02-10T22:04:17.473Z,2.70
2019-02-10T22:06:46.322Z,2.30
2019-02-10T22:09:15.216Z,2.37
2019-02-10T22:11:44.602Z,2.73
2019-02-10T22:14:13.677Z,2.07
2019-02-10T22:16:42.612Z,2.20
2019-02-10T22:19:11.693Z,3.00
2019-02-10T22:21:40.592Z,2.03
2019-02-10T22:24:09.458Z,2.00
2019-02-10T22:26:38.373Z,1.90
2019-02-10T22:29:07.222Z,2.33
2019-02-10T22:31:36.221Z,2.33
2019-02-10T22:34:05.186Z,2.60
2019-02-10T22:36:34.018Z,2.33
2019-02-10T22:39:02.809Z,2.40
2019-02-10T22:41:31.710Z,2.60
2019-02-10T22:44:00.690Z,2.03
2019-02-10T22:46:29.682Z,2.27
2019-02-10T22:48:58.593Z,2.90
2019-02-10T22:51:27.568Z,2.90
2019-02-10T22:53:56.541Z,2.90
2019-02-10T22:56:25.446Z,3.00
2019-02-10T22:58:54.261Z,3.90
2019-02-10T23:01:23.367Z,3.13
2019-02-10T23:03:52.345Z,2.43
2019-02-10T23:06:21.197Z,2.80
2019-02-10T23:08:50.229Z,2.40
2019-02-10T23:11:19.220Z,2.27
2019-02-10T23:13:48.077Z,3.50
2019-02-10T23:16:16.934Z,2.33
2019-02-10T23:18:45.758Z,2.60
2019-02-10T23:21:14.765Z,2.77
2019-02-10T23:23:43.659Z,2.80
2019-02-10T23:26:12.550Z,3.27
2019-02-10T23:28:41.369Z,2.53
2019-02-10T23:31:10.894Z,2.80
2019-02-10T23:33:39.788Z,2.70
2019-02-10T23:36:08.754Z,3.37
2019-02-10T23:38:37.576Z,2.93
2019-02-10T23:41:06.401Z,3.70
2019-02-10T23:43:35.461Z,3.13
2019-02-10T23:46:04.470Z,3.40
2019-02-10T23:48:33.323Z,3.10
2019-02-10T23:51:02.255Z,3.43
2019-02-10T23:53:31.290Z,2.57
2019-02-10T23:56:00.217Z,4.37
2019-02-10T23:58:29.065Z,3.20
